createdAt,value
2023-02-02T00:02:26.941Z,101497.00
2023-02-02T00:07:28.492Z,101504.31
2023-02-02T00:12:30.163Z,101499.41
2023-02-02T00:17:31.736Z,101498.41
2023-02-02T00:22:33.383Z,101488.44
2023-02-02T00:27:35.110Z,101491.13
2023-02-02T00:32:37.724Z,101502.03
2023-02-02T00:37:39.435Z,101484.19
2023-02-02T00:42:41.137Z,101499.59
2023-02-02T00:47:44.668Z,101490.19
2023-02-02T00:52:48.456Z,101497.94
2023-02-02T00:57:50.058Z,101477.91
2023-02-02T01:02:53.735Z,101487.53
2023-02-02T01:07:55.519Z,101466.56
2023-02-02T01:12:57.097Z,101472.97
2023-02-02T01:17:58.777Z,101484.72
2023-02-02T01:23:00.561Z,101490.28
2023-02-02T01:28:02.118Z,101497.44
2023-02-02T01:33:03.705Z,101509.28
2023-02-02T01:38:05.409Z,101504.47
2023-02-02T01:43:23.537Z,101506.31
2023-02-02T01:48:33.336Z,101509.59
2023-02-02T01:53:35.729Z,101518.81
2023-02-02T01:58:42.476Z,101528.16
2023-02-02T02:03:44.650Z,101527.16
2023-02-02T02:09:00.685Z,101517.72
2023-02-02T02:14:06.183Z,101523.84
2023-02-02T02:19:20.707Z,101522.56
2023-02-02T02:24:28.386Z,101513.97
2023-02-02T02:29:51.473Z,101506.94
2023-02-02T02:35:00.141Z,101507.47
2023-02-02T02:40:12.345Z,101501.56
2023-02-02T02:45:17.088Z,101494.25
2023-02-02T02:50:18.970Z,101504.97
2023-02-02T02:55:21.248Z,101506.13
2023-02-02T03:00:57.828Z,101506.91
2023-02-02T03:06:04.493Z,101496.69
2023-02-02T03:11:07.380Z,101520.84
2023-02-02T03:16:10.491Z,101514.81
2023-02-02T03:21:12.334Z,101497.03
2023-02-02T03:26:13.941Z,101510.53
2023-02-02T03:31:16.077Z,101499.56
2023-02-02T03:36:17.753Z,101517.72
2023-02-02T03:41:19.342Z,101516.06
2023-02-02T03:46:20.934Z,101522.94
2023-02-02T03:51:22.788Z,101534.19
2023-02-02T03:56:24.386Z,101528.88
2023-02-02T04:01:28.711Z,101520.75
2023-02-02T04:06:30.338Z,101529.28
2023-02-02T04:11:31.935Z,101526.19
2023-02-02T04:16:33.565Z,101540.91
2023-02-02T04:21:35.262Z,101531.38
2023-02-02T04:26:36.916Z,101541.16
2023-02-02T04:31:38.572Z,101542.78
2023-02-02T04:36:40.154Z,101549.53
2023-02-02T04:41:41.762Z,101549.44
2023-02-02T04:46:44.194Z,101555.41
2023-02-02T04:51:45.958Z,101563.34
2023-02-02T04:56:47.571Z,101562.97
2023-02-02T05:01:49.124Z,101552.84
2023-02-02T05:06:50.688Z,101550.72
2023-02-02T05:11:52.423Z,101562.81
2023-02-02T05:16:54.078Z,101568.50
2023-02-02T05:21:55.700Z,101569.06
2023-02-02T05:26:57.324Z,101577.00
2023-02-02T05:31:59.171Z,101586.25
2023-02-02T05:37:00.784Z,101579.59
2023-02-02T05:42:02.425Z,101571.22
2023-02-02T05:47:04.098Z,101567.50
2023-02-02T05:52:05.867Z,101571.75
2023-02-02T05:57:07.492Z,101563.94
2023-02-02T06:02:09.066Z,101564.09
2023-02-02T06:07:10.708Z,101558.88
2023-02-02T06:12:12.425Z,101566.94
2023-02-02T06:17:13.998Z,101562.53
2023-02-02T06:22:15.562Z,101585.09
2023-02-02T06:27:17.123Z,101596.72
2023-02-02T06:32:18.735Z,101599.16
2023-02-02T06:37:20.499Z,101597.41
2023-02-02T06:42:22.239Z,101605.34
2023-02-02T06:47:25.983Z,101620.59
2023-02-02T06:52:28.658Z,101620.88
2023-02-02T06:57:30.229Z,101614.97
2023-02-02T07:02:31.918Z,101599.28
2023-02-02T07:07:34.784Z,101621.84
2023-02-02T07:12:36.412Z,101606.88
2023-02-02T07:17:37.965Z,101621.72
2023-02-02T07:22:40.403Z,101629.28
2023-02-02T07:27:42.148Z,101642.03
2023-02-02T07:32:50.596Z,101631.66
2023-02-02T07:37:56.233Z,101631.97
2023-02-02T07:42:57.929Z,101651.84
2023-02-02T07:48:00.939Z,101648.34
2023-02-02T07:53:02.574Z,101656.19
2023-02-02T07:58:04.173Z,101665.94
2023-02-02T08:03:05.882Z,101639.16
2023-02-02T08:08:07.864Z,101653.72
2023-02-02T08:13:09.463Z,101638.31
2023-02-02T08:18:11.282Z,101658.03
2023-02-02T08:23:12.887Z,101654.91
2023-02-02T08:28:14.485Z,101659.56
2023-02-02T08:33:16.345Z,101662.41
2023-02-02T08:38:18.089Z,101671.81
2023-02-02T08:43:19.663Z,101672.91
2023-02-02T08:48:21.266Z,101678.00
2023-02-02T08:53:24.106Z,101682.88
2023-02-02T08:58:27.950Z,101679.25
2023-02-02T09:03:29.642Z,101693.72
2023-02-02T09:08:31.298Z,101697.97
2023-02-02T09:13:33.603Z,101693.72
2023-02-02T09:18:35.410Z,101704.97
2023-02-02T09:23:39.558Z,101705.88
2023-02-02T09:28:43.805Z,101717.41
2023-02-02T09:33:45.524Z,101724.59
2023-02-02T09:38:48.543Z,101735.34
2023-02-02T09:44:02.597Z,101741.13
2023-02-02T09:49:12.197Z,101744.09
2023-02-02T09:54:40.148Z,101731.34
2023-02-02T09:59:43.727Z,101754.44
2023-02-02T10:04:51.148Z,101776.31
2023-02-02T10:09:59.505Z,101776.44
2023-02-02T10:15:22.184Z,101782.44
2023-02-02T10:20:46.008Z,101791.47
2023-02-02T10:26:08.388Z,101792.41
2023-02-02T10:31:29.316Z,101800.56
2023-02-02T10:36:46.237Z,101808.88
2023-02-02T10:42:06.639Z,101798.31
2023-02-02T10:47:13.144Z,101819.38
2023-02-02T10:52:17.471Z,101807.28
2023-02-02T10:57:30.367Z,101818.78
2023-02-02T11:02:32.774Z,101825.88
2023-02-02T11:07:36.356Z,101816.97
2023-02-02T11:12:44.190Z,101820.06
2023-02-02T11:17:46.090Z,101818.94
2023-02-02T11:22:47.861Z,101819.81
2023-02-02T11:27:49.790Z,101816.53
2023-02-02T11:32:51.615Z,101829.38
2023-02-02T11:38:08.662Z,101827.88
2023-02-02T11:43:29.127Z,101829.69
2023-02-02T11:48:37.561Z,101835.22
2023-02-02T11:53:49.055Z,101826.63
2023-02-02T11:58:51.747Z,101818.00
2023-02-02T12:04:01.986Z,101806.94
2023-02-02T12:09:15.205Z,101807.25
2023-02-02T12:14:42.954Z,101807.44
2023-02-02T12:20:05.431Z,101802.59
2023-02-02T12:25:31.878Z,101792.53
2023-02-02T12:30:49.617Z,101792.69
2023-02-02T12:36:11.325Z,101799.50
2023-02-02T12:41:37.668Z,101792.94
2023-02-02T12:47:04.162Z,101794.94
2023-02-02T12:52:05.789Z,101802.34
2023-02-02T12:57:25.884Z,101802.03
2023-02-02T13:02:49.361Z,101801.78
2023-02-02T13:08:12.548Z,101816.34
2023-02-02T13:13:19.556Z,101827.50
2023-02-02T13:18:29.633Z,101821.44
2023-02-02T13:23:36.185Z,101807.72
2023-02-02T13:29:05.638Z,101812.13
2023-02-02T13:34:22.262Z,101819.75
2023-02-02T13:39:34.795Z,101825.28
2023-02-02T13:44:40.958Z,101828.81
2023-02-02T13:50:00.405Z,101820.94
2023-02-02T13:55:13.894Z,101833.28
2023-02-02T14:00:38.489Z,101818.38
2023-02-02T14:05:41.587Z,101803.34
2023-02-02T14:10:56.239Z,101832.69
2023-02-02T14:15:59.991Z,101838.63
2023-02-02T14:21:01.685Z,101825.84
2023-02-02T14:26:09.068Z,101825.09
2023-02-02T14:31:53.366Z,101825.91
2023-02-02T14:37:21.029Z,101839.41
2023-02-02T14:42:44.917Z,101822.28
2023-02-02T14:47:55.294Z,101834.78
2023-02-02T14:53:22.453Z,101845.63
2023-02-02T14:58:38.334Z,101845.63
2023-02-02T15:03:51.192Z,101849.84
2023-02-02T15:09:20.971Z,101858.19
2023-02-02T15:14:25.409Z,101862.78
2023-02-02T15:19:39.462Z,101859.59
2023-02-02T15:24:45.565Z,101859.66
2023-02-02T15:29:52.556Z,101868.72
2023-02-02T15:34:59.094Z,101875.31
2023-02-02T15:40:03.327Z,101874.59
2023-02-02T15:45:05.603Z,101890.69
2023-02-02T15:50:20.226Z,101900.19
2023-02-02T15:55:29.610Z,101900.19
2023-02-02T16:00:35.036Z,101901.69
2023-02-02T16:05:36.763Z,101911.41
2023-02-02T16:10:38.457Z,101902.41
2023-02-02T16:15:40.054Z,101918.56
2023-02-02T16:20:42.986Z,101925.34
2023-02-02T16:25:51.298Z,101924.78
2023-02-02T16:30:53.443Z,101914.22
2023-02-02T16:35:55.807Z,101913.34
2023-02-02T16:41:08.992Z,101928.38
2023-02-02T16:46:15.005Z,101926.00
2023-02-02T16:51:16.617Z,101933.94
2023-02-02T16:56:32.849Z,101931.97
2023-02-02T17:01:44.714Z,101934.91
2023-02-02T17:06:52.838Z,101929.94
2023-02-02T17:11:57.564Z,101943.13
2023-02-02T17:16:59.860Z,101944.94
2023-02-02T17:22:03.233Z,101952.84
2023-02-02T17:27:05.570Z,101958.97
2023-02-02T17:32:08.562Z,101954.59
2023-02-02T17:37:10.348Z,101964.94
2023-02-02T17:42:23.168Z,101964.31
2023-02-02T17:47:24.730Z,101976.56
2023-02-02T17:52:26.467Z,101975.50
2023-02-02T17:57:28.061Z,101980.63
2023-02-02T18:02:29.671Z,101989.72
2023-02-02T18:07:31.862Z,101997.69
2023-02-02T18:12:33.543Z,101993.38
2023-02-02T18:17:35.157Z,101992.13
2023-02-02T18:22:36.860Z,101999.22
2023-02-02T18:27:38.742Z,101999.97
2023-02-02T18:32:41.808Z,102004.69
2023-02-02T18:37:43.521Z,102013.84
2023-02-02T18:42:45.092Z,102012.59
2023-02-02T18:47:46.759Z,101993.72
2023-02-02T18:52:48.320Z,101988.53
2023-02-02T18:57:49.957Z,101985.72
2023-02-02T19:02:51.473Z,101991.97
2023-02-02T19:07:53.312Z,101995.19
2023-02-02T19:12:58.540Z,102005.44
2023-02-02T19:18:00.341Z,101991.88
2023-02-02T19:23:10.394Z,101989.09
2023-02-02T19:28:20.963Z,101992.09
2023-02-02T19:33:40.583Z,101988.25
2023-02-02T19:38:43.169Z,101998.06
2023-02-02T19:43:45.033Z,101994.09
2023-02-02T19:48:47.365Z,102001.69
2023-02-02T19:53:48.964Z,102002.41
2023-02-02T19:58:50.522Z,102008.09
2023-02-02T20:03:52.100Z,102009.06
2023-02-02T20:08:53.782Z,102005.19
2023-02-02T20:13:55.324Z,101999.63
2023-02-02T20:18:57.849Z,101999.09
2023-02-02T20:23:59.582Z,102003.09
2023-02-02T20:29:26.930Z,102000.03
2023-02-02T20:34:33.563Z,101996.81
2023-02-02T20:39:36.546Z,102007.06
2023-02-02T20:44:38.190Z,102001.59
2023-02-02T20:49:40.133Z,102006.09
2023-02-02T20:54:41.661Z,102008.66
2023-02-02T20:59:43.403Z,102014.28
2023-02-02T21:04:48.484Z,102000.84
2023-02-02T21:09:51.077Z,102000.91
2023-02-02T21:14:53.915Z,102014.47
2023-02-02T21:19:55.652Z,102005.94
2023-02-02T21:24:57.277Z,102021.22
2023-02-02T21:29:58.894Z,102024.16
2023-02-02T21:35:00.663Z,102033.59
2023-02-02T21:40:12.128Z,102043.47
2023-02-02T21:45:22.633Z,102041.13
2023-02-02T21:50:35.141Z,102056.28
2023-02-02T21:55:38.278Z,102045.03
2023-02-02T22:00:39.860Z,102051.94
2023-02-02T22:05:41.590Z,102074.09
2023-02-02T22:10:43.721Z,102061.59
2023-02-02T22:15:47.005Z,102051.78
2023-02-02T22:20:50.512Z,102044.25
2023-02-02T22:25:55.520Z,102057.13
2023-02-02T22:30:57.319Z,102050.16
2023-02-02T22:35:58.992Z,102048.66
2023-02-02T22:41:00.758Z,102057.72
2023-02-02T22:46:02.430Z,102049.53
2023-02-02T22:51:04.077Z,102058.75
2023-02-02T22:56:06.000Z,102046.75
2023-02-02T23:01:07.609Z,102055.03
2023-02-02T23:06:09.248Z,102048.13
2023-02-02T23:11:10.817Z,102051.94
2023-02-02T23:16:12.434Z,102049.63
2023-02-02T23:21:14.403Z,102032.06
2023-02-02T23:26:16.178Z,102034.69
2023-02-02T23:31:18.040Z,102034.84
2023-02-02T23:36:19.889Z,102019.19
2023-02-02T23:41:21.549Z,102025.50
2023-02-02T23:46:23.334Z,102027.31
2023-02-02T23:51:25.560Z,102037.72
2023-02-02T23:56:28.049Z,102024.88
